sensor_id;sensor_type;location;lat;lon;timestamp;P1;durP1;ratioP1;P2;durP2;ratioP2
7821;SDS011;3956;50.558;9.678;2023-05-23T00:01:38;13.57;;;10.83;;
7821;SDS011;3956;50.558;9.678;2023-05-23T00:04:09;12.27;;;11.07;;
7821;SDS011;3956;50.558;9.678;2023-05-23T00:06:43;12.57;;;11.27;;
7821;SDS011;3956;50.558;9.678;2023-05-23T00:09:17;12.43;;;11.13;;
7821;SDS011;3956;50.558;9.678;2023-05-23T00:11:46;14.17;;;10.83;;
7821;SDS011;3956;50.558;9.678;2023-05-23T00:14:15;13.10;;;10.53;;
7821;SDS011;3956;50.558;9.678;2023-05-23T00:16:47;15.30;;;11.57;;
7821;SDS011;3956;50.558;9.678;2023-05-23T00:19:17;14.70;;;10.77;;
7821;SDS011;3956;50.558;9.678;2023-05-23T00:21:48;17.03;;;11.83;;
7821;SDS011;3956;50.558;9.678;2023-05-23T00:24:20;14.77;;;11.57;;
7821;SDS011;3956;50.558;9.678;2023-05-23T00:26:49;12.80;;;11.40;;
7821;SDS011;3956;50.558;9.678;2023-05-23T00:29:19;15.33;;;11.20;;
7821;SDS011;3956;50.558;9.678;2023-05-23T00:31:48;14.93;;;12.13;;
7821;SDS011;3956;50.558;9.678;2023-05-23T00:34:17;16.30;;;11.80;;
7821;SDS011;3956;50.558;9.678;2023-05-23T00:36:45;12.43;;;11.23;;
7821;SDS011;3956;50.558;9.678;2023-05-23T00:39:17;13.93;;;11.10;;
7821;SDS011;3956;50.558;9.678;2023-05-23T00:41:47;15.63;;;11.57;;
7821;SDS011;3956;50.558;9.678;2023-05-23T00:44:24;14.97;;;11.33;;
7821;SDS011;3956;50.558;9.678;2023-05-23T00:46:54;14.37;;;11.50;;
7821;SDS011;3956;50.558;9.678;2023-05-23T00:49:24;14.63;;;11.40;;
7821;SDS011;3956;50.558;9.678;2023-05-23T00:51:54;15.67;;;11.67;;
7821;SDS011;3956;50.558;9.678;2023-05-23T00:54:25;13.10;;;11.70;;
7821;SDS011;3956;50.558;9.678;2023-05-23T00:56:56;13.93;;;11.57;;
7821;SDS011;3956;50.558;9.678;2023-05-23T00:59:28;13.33;;;11.93;;
7821;SDS011;3956;50.558;9.678;2023-05-23T01:01:58;13.40;;;12.00;;
7821;SDS011;3956;50.558;9.678;2023-05-23T01:04:27;12.50;;;11.10;;
7821;SDS011;3956;50.558;9.678;2023-05-23T01:07:00;14.60;;;12.10;;
7821;SDS011;3956;50.558;9.678;2023-05-23T01:09:30;14.27;;;11.50;;
7821;SDS011;3956;50.558;9.678;2023-05-23T01:12:08;14.13;;;12.00;;
7821;SDS011;3956;50.558;9.678;2023-05-23T01:14:50;13.40;;;11.90;;
7821;SDS011;3956;50.558;9.678;2023-05-23T01:17:28;17.43;;;12.37;;
7821;SDS011;3956;50.558;9.678;2023-05-23T01:20:08;16.03;;;12.40;;
7821;SDS011;3956;50.558;9.678;2023-05-23T01:22:47;16.23;;;13.00;;
7821;SDS011;3956;50.558;9.678;2023-05-23T01:25:38;17.27;;;13.70;;
7821;SDS011;3956;50.558;9.678;2023-05-23T01:28:40;15.00;;;13.33;;
7821;SDS011;3956;50.558;9.678;2023-05-23T01:31:12;15.67;;;12.50;;
7821;SDS011;3956;50.558;9.678;2023-05-23T01:33:42;14.97;;;12.97;;
7821;SDS011;3956;50.558;9.678;2023-05-23T01:36:12;17.43;;;13.57;;
7821;SDS011;3956;50.558;9.678;2023-05-23T01:38:41;17.80;;;14.00;;
7821;SDS011;3956;50.558;9.678;2023-05-23T01:41:09;16.40;;;13.33;;
7821;SDS011;3956;50.558;9.678;2023-05-23T01:43:47;18.60;;;13.30;;
7821;SDS011;3956;50.558;9.678;2023-05-23T01:46:19;14.60;;;12.93;;
7821;SDS011;3956;50.558;9.678;2023-05-23T01:48:51;15.53;;;13.50;;
7821;SDS011;3956;50.558;9.678;2023-05-23T01:51:23;17.57;;;13.70;;
7821;SDS011;3956;50.558;9.678;2023-05-23T01:53:55;21.03;;;14.07;;
7821;SDS011;3956;50.558;9.678;2023-05-23T01:56:31;17.33;;;15.47;;
7821;SDS011;3956;50.558;9.678;2023-05-23T01:59:04;19.67;;;14.63;;
7821;SDS011;3956;50.558;9.678;2023-05-23T02:01:36;21.67;;;15.07;;
7821;SDS011;3956;50.558;9.678;2023-05-23T02:04:08;27.53;;;17.90;;
7821;SDS011;3956;50.558;9.678;2023-05-23T02:06:40;24.53;;;17.60;;
7821;SDS011;3956;50.558;9.678;2023-05-23T02:09:14;24.03;;;16.90;;
7821;SDS011;3956;50.558;9.678;2023-05-23T02:11:47;21.03;;;17.37;;
7821;SDS011;3956;50.558;9.678;2023-05-23T02:14:18;26.50;;;20.60;;
7821;SDS011;3956;50.558;9.678;2023-05-23T02:16:49;21.13;;;15.70;;
7821;SDS011;3956;50.558;9.678;2023-05-23T02:22:31;24.20;;;18.03;;
7821;SDS011;3956;50.558;9.678;2023-05-23T02:27:33;21.53;;;15.97;;
7821;SDS011;3956;50.558;9.678;2023-05-23T02:30:07;22.33;;;16.00;;
7821;SDS011;3956;50.558;9.678;2023-05-23T02:32:39;21.60;;;15.60;;
7821;SDS011;3956;50.558;9.678;2023-05-23T02:35:08;21.43;;;16.20;;
7821;SDS011;3956;50.558;9.678;2023-05-23T02:37:36;21.33;;;16.00;;
7821;SDS011;3956;50.558;9.678;2023-05-23T02:40:06;18.93;;;14.63;;
7821;SDS011;3956;50.558;9.678;2023-05-23T02:42:44;16.83;;;14.93;;
7821;SDS011;3956;50.558;9.678;2023-05-23T02:45:13;17.37;;;14.87;;
7821;SDS011;3956;50.558;9.678;2023-05-23T02:47:49;20.27;;;15.63;;
7821;SDS011;3956;50.558;9.678;2023-05-23T02:50:24;16.20;;;14.40;;
7821;SDS011;3956;50.558;9.678;2023-05-23T02:53:03;20.70;;;14.50;;
7821;SDS011;3956;50.558;9.678;2023-05-23T02:55:55;17.50;;;15.30;;
7821;SDS011;3956;50.558;9.678;2023-05-23T02:58:27;20.23;;;15.40;;
7821;SDS011;3956;50.558;9.678;2023-05-23T03:00:57;18.43;;;15.00;;
7821;SDS011;3956;50.558;9.678;2023-05-23T03:03:30;21.07;;;15.13;;
7821;SDS011;3956;50.558;9.678;2023-05-23T03:06:03;19.67;;;15.67;;
7821;SDS011;3956;50.558;9.678;2023-05-23T03:08:32;22.70;;;16.33;;
7821;SDS011;3956;50.558;9.678;2023-05-23T03:11:01;18.70;;;15.77;;
7821;SDS011;3956;50.558;9.678;2023-05-23T03:13:33;17.37;;;15.27;;
7821;SDS011;3956;50.558;9.678;2023-05-23T03:16:10;17.77;;;15.33;;
7821;SDS011;3956;50.558;9.678;2023-05-23T03:18:40;19.83;;;15.83;;
7821;SDS011;3956;50.558;9.678;2023-05-23T03:21:11;18.77;;;15.80;;
7821;SDS011;3956;50.558;9.678;2023-05-23T03:23:43;20.70;;;16.47;;
7821;SDS011;3956;50.558;9.678;2023-05-23T03:26:13;19.73;;;16.43;;
7821;SDS011;3956;50.558;9.678;2023-05-23T03:28:44;19.57;;;16.60;;
7821;SDS011;3956;50.558;9.678;2023-05-23T03:31:15;22.80;;;16.87;;
7821;SDS011;3956;50.558;9.678;2023-05-23T03:33:46;20.23;;;16.73;;
7821;SDS011;3956;50.558;9.678;2023-05-23T03:36:14;20.60;;;16.87;;
7821;SDS011;3956;50.558;9.678;2023-05-23T03:38:52;19.90;;;17.00;;
7821;SDS011;3956;50.558;9.678;2023-05-23T03:41:34;19.07;;;17.00;;
7821;SDS011;3956;50.558;9.678;2023-05-23T03:44:04;23.30;;;16.30;;
7821;SDS011;3956;50.558;9.678;2023-05-23T03:46:40;22.23;;;17.47;;
7821;SDS011;3956;50.558;9.678;2023-05-23T03:49:13;20.77;;;15.17;;
7821;SDS011;3956;50.558;9.678;2023-05-23T03:52:21;21.70;;;16.10;;
7821;SDS011;3956;50.558;9.678;2023-05-23T03:54:53;22.77;;;16.77;;
7821;SDS011;3956;50.558;9.678;2023-05-23T03:57:22;19.60;;;16.43;;
7821;SDS011;3956;50.558;9.678;2023-05-23T03:59:54;20.83;;;16.53;;
7821;SDS011;3956;50.558;9.678;2023-05-23T04:02:26;19.53;;;16.83;;
7821;SDS011;3956;50.558;9.678;2023-05-23T04:04:54;19.93;;;17.33;;
7821;SDS011;3956;50.558;9.678;2023-05-23T04:07:24;22.00;;;17.70;;
7821;SDS011;3956;50.558;9.678;2023-05-23T04:09:52;20.90;;;16.47;;
7821;SDS011;3956;50.558;9.678;2023-05-23T04:12:22;22.33;;;16.73;;
7821;SDS011;3956;50.558;9.678;2023-05-23T04:14:51;17.63;;;15.50;;
7821;SDS011;3956;50.558;9.678;2023-05-23T04:17:23;18.67;;;14.73;;
7821;SDS011;3956;50.558;9.678;2023-05-23T04:20:00;19.60;;;14.63;;
7821;SDS011;3956;50.558;9.678;2023-05-23T04:22:28;15.77;;;14.07;;
7821;SDS011;3956;50.558;9.678;2023-05-23T04:27:23;16.30;;;13.70;;
7821;SDS011;3956;50.558;9.678;2023-05-23T04:32:22;16.53;;;13.70;;
7821;SDS011;3956;50.558;9.678;2023-05-23T04:35:04;17.47;;;13.57;;
7821;SDS011;3956;50.558;9.678;2023-05-23T04:37:38;15.83;;;13.37;;
7821;SDS011;3956;50.558;9.678;2023-05-23T04:40:16;15.97;;;12.23;;
7821;SDS011;3956;50.558;9.678;2023-05-23T04:43:04;15.00;;;13.37;;
7821;SDS011;3956;50.558;9.678;2023-05-23T04:45:36;15.27;;;12.87;;
7821;SDS011;3956;50.558;9.678;2023-05-23T04:51:08;15.13;;;12.50;;
7821;SDS011;3956;50.558;9.678;2023-05-23T04:53:40;15.93;;;12.73;;
7821;SDS011;3956;50.558;9.678;2023-05-23T04:56:11;17.40;;;12.77;;
7821;SDS011;3956;50.558;9.678;2023-05-23T04:58:39;16.73;;;12.90;;
7821;SDS011;3956;50.558;9.678;2023-05-23T05:01:20;14.57;;;11.50;;
7821;SDS011;3956;50.558;9.678;2023-05-23T05:03:57;13.00;;;11.50;;
7821;SDS011;3956;50.558;9.678;2023-05-23T05:07:05;17.77;;;12.00;;
7821;SDS011;3956;50.558;9.678;2023-05-23T05:10:06;14.23;;;10.57;;
7821;SDS011;3956;50.558;9.678;2023-05-23T05:12:36;11.73;;;10.53;;
7821;SDS011;3956;50.558;9.678;2023-05-23T05:15:05;13.67;;;10.60;;
7821;SDS011;3956;50.558;9.678;2023-05-23T05:17:38;11.53;;;10.33;;
7821;SDS011;3956;50.558;9.678;2023-05-23T05:20:15;11.60;;;9.57;;
7821;SDS011;3956;50.558;9.678;2023-05-23T05:22:45;13.77;;;10.17;;
7821;SDS011;3956;50.558;9.678;2023-05-23T05:25:37;11.50;;;10.20;;
7821;SDS011;3956;50.558;9.678;2023-05-23T05:28:15;12.30;;;9.43;;
7821;SDS011;3956;50.558;9.678;2023-05-23T05:31:53;9.65;;;8.65;;
7821;SDS011;3956;50.558;9.678;2023-05-23T05:34:40;11.30;;;9.30;;
7821;SDS011;3956;50.558;9.678;2023-05-23T05:37:24;15.63;;;10.10;;
7821;SDS011;3956;50.558;9.678;2023-05-23T05:40:34;11.87;;;10.67;;
7821;SDS011;3956;50.558;9.678;2023-05-23T05:43:40;13.73;;;10.87;;
7821;SDS011;3956;50.558;9.678;2023-05-23T05:46:19;13.43;;;10.50;;
7821;SDS011;3956;50.558;9.678;2023-05-23T05:49:00;11.17;;;9.37;;
7821;SDS011;3956;50.558;9.678;2023-05-23T05:51:37;13.40;;;9.80;;
7821;SDS011;3956;50.558;9.678;2023-05-23T06:01:35;10.57;;;9.30;;
7821;SDS011;3956;50.558;9.678;2023-05-23T06:04:09;11.10;;;9.90;;
7821;SDS011;3956;50.558;9.678;2023-05-23T06:06:38;12.30;;;10.00;;
7821;SDS011;3956;50.558;9.678;2023-05-23T06:09:08;11.90;;;9.50;;
7821;SDS011;3956;50.558;9.678;2023-05-23T06:11:44;13.23;;;9.97;;
7821;SDS011;3956;50.558;9.678;2023-05-23T06:14:12;10.13;;;8.37;;
7821;SDS011;3956;50.558;9.678;2023-05-23T06:16:43;9.33;;;8.30;;
7821;SDS011;3956;50.558;9.678;2023-05-23T06:19:13;9.37;;;8.40;;
7821;SDS011;3956;50.558;9.678;2023-05-23T06:21:43;13.27;;;8.23;;
7821;SDS011;3956;50.558;9.678;2023-05-23T06:24:19;10.07;;;7.90;;
7821;SDS011;3956;50.558;9.678;2023-05-23T06:26:49;8.73;;;7.37;;
7821;SDS011;3956;50.558;9.678;2023-05-23T06:29:17;7.67;;;6.67;;
7821;SDS011;3956;50.558;9.678;2023-05-23T06:34:49;7.40;;;6.43;;
7821;SDS011;3956;50.558;9.678;2023-05-23T06:37:17;7.17;;;6.47;;
7821;SDS011;3956;50.558;9.678;2023-05-23T06:39:47;9.23;;;6.57;;
7821;SDS011;3956;50.558;9.678;2023-05-23T06:42:15;8.40;;;6.07;;
7821;SDS011;3956;50.558;9.678;2023-05-23T06:44:45;6.20;;;5.60;;
7821;SDS011;3956;50.558;9.678;2023-05-23T06:47:16;8.37;;;6.20;;
7821;SDS011;3956;50.558;9.678;2023-05-23T06:49:50;6.90;;;5.33;;
7821;SDS011;3956;50.558;9.678;2023-05-23T06:52:41;5.40;;;4.90;;
7821;SDS011;3956;50.558;9.678;2023-05-23T06:55:12;5.87;;;5.27;;
7821;SDS011;3956;50.558;9.678;2023-05-23T06:57:47;8.50;;;5.43;;
7821;SDS011;3956;50.558;9.678;2023-05-23T07:00:19;5.87;;;4.70;;
7821;SDS011;3956;50.558;9.678;2023-05-23T07:02:48;6.03;;;4.70;;
7821;SDS011;3956;50.558;9.678;2023-05-23T07:05:17;4.37;;;3.97;;
7821;SDS011;3956;50.558;9.678;2023-05-23T07:07:50;5.33;;;4.83;;
7821;SDS011;3956;50.558;9.678;2023-05-23T07:10:21;7.53;;;4.37;;
7821;SDS011;3956;50.558;9.678;2023-05-23T07:12:55;5.93;;;4.70;;
7821;SDS011;3956;50.558;9.678;2023-05-23T07:15:27;6.00;;;4.00;;
7821;SDS011;3956;50.558;9.678;2023-05-23T07:18:00;5.63;;;4.70;;
7821;SDS011;3956;50.558;9.678;2023-05-23T07:20:44;5.90;;;5.00;;
7821;SDS011;3956;50.558;9.678;2023-05-23T07:23:45;5.27;;;4.63;;
7821;SDS011;3956;50.558;9.678;2023-05-23T07:26:14;6.33;;;4.10;;
7821;SDS011;3956;50.558;9.678;2023-05-23T07:28:42;5.27;;;4.00;;
7821;SDS011;3956;50.558;9.678;2023-05-23T07:31:13;3.80;;;3.40;;
7821;SDS011;3956;50.558;9.678;2023-05-23T07:34:07;3.80;;;3.37;;
7821;SDS011;3956;50.558;9.678;2023-05-23T07:36:35;3.20;;;2.90;;
7821;SDS011;3956;50.558;9.678;2023-05-23T07:39:06;4.37;;;3.17;;
7821;SDS011;3956;50.558;9.678;2023-05-23T07:41:35;3.33;;;3.03;;
7821;SDS011;3956;50.558;9.678;2023-05-23T07:44:03;3.57;;;3.27;;
7821;SDS011;3956;50.558;9.678;2023-05-23T07:46:32;3.93;;;3.13;;
7821;SDS011;3956;50.558;9.678;2023-05-23T07:49:01;3.10;;;2.80;;
7821;SDS011;3956;50.558;9.678;2023-05-23T07:51:37;4.20;;;3.17;;
7821;SDS011;3956;50.558;9.678;2023-05-23T07:54:05;4.73;;;3.17;;
7821;SDS011;3956;50.558;9.678;2023-05-23T07:56:35;3.77;;;3.30;;
7821;SDS011;3956;50.558;9.678;2023-05-23T07:59:04;4.20;;;3.30;;
7821;SDS011;3956;50.558;9.678;2023-05-23T08:01:34;4.00;;;3.10;;
7821;SDS011;3956;50.558;9.678;2023-05-23T08:04:02;3.67;;;3.37;;
7821;SDS011;3956;50.558;9.678;2023-05-23T08:06:33;5.77;;;3.57;;
7821;SDS011;3956;50.558;9.678;2023-05-23T08:09:05;3.47;;;2.80;;
7821;SDS011;3956;50.558;9.678;2023-05-23T08:11:33;4.00;;;3.30;;
7821;SDS011;3956;50.558;9.678;2023-05-23T08:14:02;3.63;;;3.20;;
7821;SDS011;3956;50.558;9.678;2023-05-23T08:16:38;3.20;;;2.80;;
7821;SDS011;3956;50.558;9.678;2023-05-23T08:19:12;5.43;;;3.03;;
7821;SDS011;3956;50.558;9.678;2023-05-23T08:22:17;3.77;;;3.00;;
7821;SDS011;3956;50.558;9.678;2023-05-23T08:24:46;5.47;;;3.20;;
7821;SDS011;3956;50.558;9.678;2023-05-23T08:27:15;3.87;;;3.00;;
7821;SDS011;3956;50.558;9.678;2023-05-23T08:29:43;3.87;;;3.30;;
7821;SDS011;3956;50.558;9.678;2023-05-23T08:32:11;3.53;;;3.10;;
7821;SDS011;3956;50.558;9.678;2023-05-23T08:34:41;3.40;;;3.10;;
7821;SDS011;3956;50.558;9.678;2023-05-23T08:37:10;3.17;;;2.87;;
7821;SDS011;3956;50.558;9.678;2023-05-23T08:39:44;3.37;;;3.00;;
7821;SDS011;3956;50.558;9.678;2023-05-23T08:42:13;3.20;;;2.90;;
7821;SDS011;3956;50.558;9.678;2023-05-23T08:44:41;3.30;;;3.00;;
7821;SDS011;3956;50.558;9.678;2023-05-23T08:47:09;3.67;;;3.00;;
7821;SDS011;3956;50.558;9.678;2023-05-23T08:49:43;4.87;;;2.80;;
7821;SDS011;3956;50.558;9.678;2023-05-23T08:52:12;5.07;;;3.30;;
7821;SDS011;3956;50.558;9.678;2023-05-23T08:54:48;4.13;;;3.03;;
7821;SDS011;3956;50.558;9.678;2023-05-23T08:57:17;3.13;;;2.83;;
7821;SDS011;3956;50.558;9.678;2023-05-23T08:59:46;2.90;;;2.70;;
7821;SDS011;3956;50.558;9.678;2023-05-23T09:02:20;3.40;;;2.80;;
7821;SDS011;3956;50.558;9.678;2023-05-23T09:04:59;4.73;;;3.20;;
7821;SDS011;3956;50.558;9.678;2023-05-23T09:08:18;3.03;;;2.70;;
7821;SDS011;3956;50.558;9.678;2023-05-23T09:10:51;3.83;;;2.80;;
7821;SDS011;3956;50.558;9.678;2023-05-23T09:13:23;5.80;;;2.80;;
7821;SDS011;3956;50.558;9.678;2023-05-23T09:19:29;4.80;;;2.60;;
7821;SDS011;3956;50.558;9.678;2023-05-23T09:22:24;3.60;;;3.30;;
7821;SDS011;3956;50.558;9.678;2023-05-23T09:24:56;4.87;;;2.67;;
7821;SDS011;3956;50.558;9.678;2023-05-23T09:27:26;3.60;;;2.93;;
7821;SDS011;3956;50.558;9.678;2023-05-23T09:29:58;3.07;;;2.57;;
7821;SDS011;3956;50.558;9.678;2023-05-23T09:32:35;4.23;;;2.70;;
7821;SDS011;3956;50.558;9.678;2023-05-23T09:35:04;4.23;;;3.27;;
7821;SDS011;3956;50.558;9.678;2023-05-23T09:37:40;3.07;;;2.67;;
7821;SDS011;3956;50.558;9.678;2023-05-23T09:40:32;3.40;;;2.80;;
7821;SDS011;3956;50.558;9.678;2023-05-23T09:43:08;3.10;;;2.80;;
7821;SDS011;3956;50.558;9.678;2023-05-23T09:45:40;5.83;;;2.57;;
7821;SDS011;3956;50.558;9.678;2023-05-23T09:48:10;3.40;;;3.10;;
7821;SDS011;3956;50.558;9.678;2023-05-23T09:50:41;4.40;;;2.90;;
7821;SDS011;3956;50.558;9.678;2023-05-23T09:53:52;3.17;;;2.87;;
7821;SDS011;3956;50.558;9.678;2023-05-23T09:56:26;3.73;;;3.20;;
7821;SDS011;3956;50.558;9.678;2023-05-23T09:59:24;5.93;;;3.10;;
7821;SDS011;3956;50.558;9.678;2023-05-23T10:02:54;3.17;;;2.80;;
7821;SDS011;3956;50.558;9.678;2023-05-23T10:05:32;4.53;;;3.10;;
7821;SDS011;3956;50.558;9.678;2023-05-23T10:08:07;7.70;;;6.17;;
7821;SDS011;3956;50.558;9.678;2023-05-23T10:14:11;4.00;;;3.00;;
7821;SDS011;3956;50.558;9.678;2023-05-23T10:16:54;39.50;;;35.43;;
7821;SDS011;3956;50.558;9.678;2023-05-23T10:20:18;4.30;;;3.90;;
7821;SDS011;3956;50.558;9.678;2023-05-23T10:23:05;4.60;;;2.80;;
7821;SDS011;3956;50.558;9.678;2023-05-23T10:25:40;3.53;;;3.03;;
7821;SDS011;3956;50.558;9.678;2023-05-23T10:28:21;4.40;;;3.23;;
7821;SDS011;3956;50.558;9.678;2023-05-23T10:30:54;3.70;;;2.90;;
7821;SDS011;3956;50.558;9.678;2023-05-23T10:33:40;3.83;;;2.83;;
7821;SDS011;3956;50.558;9.678;2023-05-23T10:36:18;3.57;;;3.10;;
7821;SDS011;3956;50.558;9.678;2023-05-23T10:38:54;3.47;;;2.80;;
7821;SDS011;3956;50.558;9.678;2023-05-23T10:41:50;3.27;;;2.80;;
7821;SDS011;3956;50.558;9.678;2023-05-23T10:44:25;4.77;;;3.20;;
7821;SDS011;3956;50.558;9.678;2023-05-23T10:47:29;3.60;;;3.23;;
7821;SDS011;3956;50.558;9.678;2023-05-23T10:50:04;4.67;;;3.23;;
7821;SDS011;3956;50.558;9.678;2023-05-23T10:52:38;3.67;;;3.27;;
7821;SDS011;3956;50.558;9.678;2023-05-23T10:55:18;3.27;;;2.77;;
7821;SDS011;3956;50.558;9.678;2023-05-23T10:57:53;3.33;;;2.87;;
7821;SDS011;3956;50.558;9.678;2023-05-23T11:00:38;3.10;;;2.73;;
7821;SDS011;3956;50.558;9.678;2023-05-23T11:03:31;2.70;;;2.40;;
7821;SDS011;3956;50.558;9.678;2023-05-23T11:06:08;3.23;;;2.40;;
7821;SDS011;3956;50.558;9.678;2023-05-23T11:09:31;2.53;;;2.17;;
7821;SDS011;3956;50.558;9.678;2023-05-23T11:12:37;2.70;;;2.30;;
7821;SDS011;3956;50.558;9.678;2023-05-23T11:15:21;2.60;;;1.90;;
7821;SDS011;3956;50.558;9.678;2023-05-23T11:18:09;2.40;;;1.93;;
7821;SDS011;3956;50.558;9.678;2023-05-23T11:20:46;2.23;;;2.03;;
7821;SDS011;3956;50.558;9.678;2023-05-23T11:23:47;2.87;;;2.20;;
7821;SDS011;3956;50.558;9.678;2023-05-23T11:26:58;2.33;;;2.13;;
7821;SDS011;3956;50.558;9.678;2023-05-23T11:30:15;2.50;;;2.00;;
7821;SDS011;3956;50.558;9.678;2023-05-23T11:32:49;3.53;;;1.83;;
7821;SDS011;3956;50.558;9.678;2023-05-23T11:35:19;2.93;;;2.17;;
7821;SDS011;3956;50.558;9.678;2023-05-23T11:38:04;3.10;;;2.23;;
7821;SDS011;3956;50.558;9.678;2023-05-23T11:44:13;2.50;;;2.00;;
7821;SDS011;3956;50.558;9.678;2023-05-23T11:46:57;1.80;;;1.60;;
7821;SDS011;3956;50.558;9.678;2023-05-23T11:49:27;2.63;;;1.80;;
7821;SDS011;3956;50.558;9.678;2023-05-23T11:51:57;2.43;;;1.80;;
7821;SDS011;3956;50.558;9.678;2023-05-23T11:54:27;1.90;;;1.70;;
7821;SDS011;3956;50.558;9.678;2023-05-23T11:56:57;4.13;;;1.70;;
7821;SDS011;3956;50.558;9.678;2023-05-23T11:59:29;2.30;;;1.60;;
7821;SDS011;3956;50.558;9.678;2023-05-23T12:02:00;2.33;;;1.50;;
7821;SDS011;3956;50.558;9.678;2023-05-23T12:04:52;1.53;;;1.43;;
7821;SDS011;3956;50.558;9.678;2023-05-23T12:07:22;1.43;;;1.33;;
7821;SDS011;3956;50.558;9.678;2023-05-23T12:09:54;2.13;;;1.30;;
7821;SDS011;3956;50.558;9.678;2023-05-23T12:12:23;1.47;;;1.30;;
7821;SDS011;3956;50.558;9.678;2023-05-23T12:14:58;1.67;;;1.20;;
7821;SDS011;3956;50.558;9.678;2023-05-23T12:17:27;1.80;;;1.30;;
7821;SDS011;3956;50.558;9.678;2023-05-23T12:20:00;1.43;;;1.20;;
7821;SDS011;3956;50.558;9.678;2023-05-23T12:22:40;1.60;;;1.40;;
7821;SDS011;3956;50.558;9.678;2023-05-23T12:25:10;2.03;;;1.40;;
7821;SDS011;3956;50.558;9.678;2023-05-23T12:28:14;2.40;;;1.60;;
7821;SDS011;3956;50.558;9.678;2023-05-23T12:30:51;1.67;;;1.40;;
7821;SDS011;3956;50.558;9.678;2023-05-23T12:33:20;2.20;;;1.40;;
7821;SDS011;3956;50.558;9.678;2023-05-23T12:35:54;2.03;;;1.80;;
7821;SDS011;3956;50.558;9.678;2023-05-23T12:38:27;1.43;;;1.30;;
7821;SDS011;3956;50.558;9.678;2023-05-23T12:41:31;2.40;;;1.60;;
7821;SDS011;3956;50.558;9.678;2023-05-23T12:44:03;7.10;;;1.97;;
7821;SDS011;3956;50.558;9.678;2023-05-23T12:46:39;4.27;;;1.67;;
7821;SDS011;3956;50.558;9.678;2023-05-23T12:49:09;2.10;;;1.53;;
7821;SDS011;3956;50.558;9.678;2023-05-23T12:51:47;2.37;;;1.70;;
7821;SDS011;3956;50.558;9.678;2023-05-23T12:54:33;3.30;;;1.70;;
7821;SDS011;3956;50.558;9.678;2023-05-23T12:57:18;2.00;;;1.80;;
7821;SDS011;3956;50.558;9.678;2023-05-23T13:00:51;2.73;;;1.90;;
7821;SDS011;3956;50.558;9.678;2023-05-23T13:03:27;3.43;;;2.20;;
7821;SDS011;3956;50.558;9.678;2023-05-23T13:06:21;2.20;;;2.00;;
7821;SDS011;3956;50.558;9.678;2023-05-23T13:09:04;2.00;;;1.80;;
7821;SDS011;3956;50.558;9.678;2023-05-23T13:11:40;2.10;;;1.90;;
7821;SDS011;3956;50.558;9.678;2023-05-23T13:14:11;2.37;;;2.00;;
7821;SDS011;3956;50.558;9.678;2023-05-23T13:16:40;5.03;;;2.70;;
7821;SDS011;3956;50.558;9.678;2023-05-23T13:19:12;3.33;;;2.60;;
7821;SDS011;3956;50.558;9.678;2023-05-23T13:21:41;3.73;;;2.60;;
7821;SDS011;3956;50.558;9.678;2023-05-23T13:24:11;3.20;;;2.87;;
7821;SDS011;3956;50.558;9.678;2023-05-23T13:26:41;3.00;;;2.70;;
7821;SDS011;3956;50.558;9.678;2023-05-23T13:29:14;3.20;;;2.90;;
7821;SDS011;3956;50.558;9.678;2023-05-23T13:31:45;3.30;;;3.00;;
7821;SDS011;3956;50.558;9.678;2023-05-23T13:34:17;3.83;;;2.80;;
7821;SDS011;3956;50.558;9.678;2023-05-23T13:36:48;3.40;;;3.10;;
7821;SDS011;3956;50.558;9.678;2023-05-23T13:39:16;4.70;;;3.23;;
7821;SDS011;3956;50.558;9.678;2023-05-23T13:41:51;3.90;;;3.23;;
7821;SDS011;3956;50.558;9.678;2023-05-23T13:44:22;3.50;;;3.20;;
7821;SDS011;3956;50.558;9.678;2023-05-23T13:46:51;4.53;;;3.80;;
7821;SDS011;3956;50.558;9.678;2023-05-23T13:49:39;4.20;;;3.77;;
7821;SDS011;3956;50.558;9.678;2023-05-23T13:52:18;4.03;;;3.60;;
7821;SDS011;3956;50.558;9.678;2023-05-23T13:54:49;5.53;;;4.13;;
7821;SDS011;3956;50.558;9.678;2023-05-23T13:57:21;5.00;;;3.87;;
7821;SDS011;3956;50.558;9.678;2023-05-23T13:59:59;5.00;;;3.83;;
7821;SDS011;3956;50.558;9.678;2023-05-23T14:02:30;4.17;;;3.13;;
7821;SDS011;3956;50.558;9.678;2023-05-23T14:05:24;4.83;;;3.70;;
7821;SDS011;3956;50.558;9.678;2023-05-23T14:07:53;3.83;;;3.43;;
7821;SDS011;3956;50.558;9.678;2023-05-23T14:10:26;4.03;;;3.13;;
7821;SDS011;3956;50.558;9.678;2023-05-23T14:13:00;3.77;;;3.40;;
7821;SDS011;3956;50.558;9.678;2023-05-23T14:15:30;4.93;;;3.87;;
7821;SDS011;3956;50.558;9.678;2023-05-23T14:18:11;4.03;;;3.60;;
7821;SDS011;3956;50.558;9.678;2023-05-23T14:20:58;4.00;;;3.60;;
7821;SDS011;3956;50.558;9.678;2023-05-23T14:23:28;6.47;;;3.80;;
7821;SDS011;3956;50.558;9.678;2023-05-23T14:26:00;5.00;;;3.30;;
7821;SDS011;3956;50.558;9.678;2023-05-23T14:28:29;3.93;;;3.27;;
7821;SDS011;3956;50.558;9.678;2023-05-23T14:33:29;5.20;;;3.67;;
7821;SDS011;3956;50.558;9.678;2023-05-23T14:35:59;5.00;;;4.03;;
7821;SDS011;3956;50.558;9.678;2023-05-23T14:38:31;4.30;;;3.90;;
7821;SDS011;3956;50.558;9.678;2023-05-23T14:41:21;5.47;;;3.70;;
7821;SDS011;3956;50.558;9.678;2023-05-23T14:43:52;4.87;;;4.20;;
7821;SDS011;3956;50.558;9.678;2023-05-23T14:47:22;5.87;;;4.03;;
7821;SDS011;3956;50.558;9.678;2023-05-23T14:49:53;4.00;;;3.50;;
7821;SDS011;3956;50.558;9.678;2023-05-23T14:52:24;4.87;;;3.97;;
7821;SDS011;3956;50.558;9.678;2023-05-23T14:54:52;4.93;;;4.23;;
7821;SDS011;3956;50.558;9.678;2023-05-23T14:57:23;6.30;;;4.10;;
7821;SDS011;3956;50.558;9.678;2023-05-23T14:59:55;5.90;;;3.77;;
7821;SDS011;3956;50.558;9.678;2023-05-23T15:02:24;4.27;;;3.87;;
7821;SDS011;3956;50.558;9.678;2023-05-23T15:05:02;4.43;;;3.53;;
7821;SDS011;3956;50.558;9.678;2023-05-23T15:07:47;5.23;;;3.50;;
7821;SDS011;3956;50.558;9.678;2023-05-23T15:10:20;6.37;;;4.03;;
7821;SDS011;3956;50.558;9.678;2023-05-23T15:13:34;5.30;;;4.40;;
7821;SDS011;3956;50.558;9.678;2023-05-23T15:16:29;4.97;;;4.00;;
7821;SDS011;3956;50.558;9.678;2023-05-23T15:19:02;5.90;;;4.33;;
7821;SDS011;3956;50.558;9.678;2023-05-23T15:22:06;5.73;;;3.80;;
7821;SDS011;3956;50.558;9.678;2023-05-23T15:25:12;6.30;;;4.50;;
7821;SDS011;3956;50.558;9.678;2023-05-23T15:27:47;5.53;;;3.97;;
7821;SDS011;3956;50.558;9.678;2023-05-23T15:31:00;6.50;;;4.23;;
7821;SDS011;3956;50.558;9.678;2023-05-23T15:33:45;5.90;;;4.30;;
7821;SDS011;3956;50.558;9.678;2023-05-23T15:36:40;5.82;;;4.40;;
7821;SDS011;3956;50.558;9.678;2023-05-23T15:39:26;5.23;;;3.93;;
7821;SDS011;3956;50.558;9.678;2023-05-23T15:41:56;5.90;;;3.87;;
7821;SDS011;3956;50.558;9.678;2023-05-23T15:44:29;4.63;;;3.83;;
7821;SDS011;3956;50.558;9.678;2023-05-23T15:47:47;6.60;;;4.03;;
7821;SDS011;3956;50.558;9.678;2023-05-23T15:50:36;5.63;;;3.60;;
7821;SDS011;3956;50.558;9.678;2023-05-23T15:53:13;5.77;;;3.60;;
7821;SDS011;3956;50.558;9.678;2023-05-23T15:55:44;4.93;;;3.60;;
7821;SDS011;3956;50.558;9.678;2023-05-23T15:58:15;6.33;;;3.90;;
7821;SDS011;3956;50.558;9.678;2023-05-23T16:00:44;4.43;;;3.40;;
7821;SDS011;3956;50.558;9.678;2023-05-23T16:03:16;6.63;;;3.73;;
7821;SDS011;3956;50.558;9.678;2023-05-23T16:06:30;5.83;;;3.53;;
7821;SDS011;3956;50.558;9.678;2023-05-23T16:09:33;4.23;;;3.27;;
7821;SDS011;3956;50.558;9.678;2023-05-23T16:12:16;6.87;;;3.60;;
7821;SDS011;3956;50.558;9.678;2023-05-23T16:14:59;5.43;;;3.10;;
7821;SDS011;3956;50.558;9.678;2023-05-23T16:18:18;6.80;;;3.17;;
7821;SDS011;3956;50.558;9.678;2023-05-23T16:20:53;5.23;;;3.03;;
7821;SDS011;3956;50.558;9.678;2023-05-23T16:23:38;7.50;;;3.60;;
7821;SDS011;3956;50.558;9.678;2023-05-23T16:26:08;4.63;;;3.27;;
7821;SDS011;3956;50.558;9.678;2023-05-23T16:28:38;8.93;;;3.97;;
7821;SDS011;3956;50.558;9.678;2023-05-23T16:31:14;6.23;;;4.00;;
7821;SDS011;3956;50.558;9.678;2023-05-23T16:33:45;5.27;;;3.40;;
7821;SDS011;3956;50.558;9.678;2023-05-23T16:36:19;8.43;;;4.13;;
7821;SDS011;3956;50.558;9.678;2023-05-23T16:38:47;8.03;;;4.57;;
7821;SDS011;3956;50.558;9.678;2023-05-23T16:41:16;9.47;;;3.80;;
7821;SDS011;3956;50.558;9.678;2023-05-23T16:43:44;7.57;;;3.80;;